createdAt,value
2023-03-20T00:00:27.473Z,9.70
2023-03-20T00:01:27.484Z,9.70
2023-03-20T00:02:27.452Z,9.73
2023-03-20T00:03:27.484Z,9.71
2023-03-20T00:04:27.450Z,9.71
2023-03-20T00:05:27.422Z,9.68
2023-03-20T00:06:27.418Z,9.65
2023-03-20T00:07:27.459Z,9.68
2023-03-20T00:08:29.611Z,9.68
2023-03-20T00:09:27.378Z,9.67
2023-03-20T00:10:27.378Z,9.65
2023-03-20T00:11:27.361Z,9.65
2023-03-20T00:12:27.336Z,9.67
2023-03-20T00:13:27.309Z,9.70
2023-03-20T00:14:27.321Z,9.68
2023-03-20T00:15:27.341Z,9.70
2023-03-20T00:16:27.300Z,9.70
2023-03-20T00:17:27.310Z,9.68
2023-03-20T00:18:27.227Z,9.63
2023-03-20T00:19:27.230Z,9.62
2023-03-20T00:20:27.530Z,9.63
2023-03-20T00:21:27.275Z,9.63
2023-03-20T00:22:27.177Z,9.62
2023-03-20T00:23:27.229Z,9.63
2023-03-20T00:24:27.152Z,9.63
2023-03-20T00:25:27.180Z,9.63
2023-03-20T00:26:27.166Z,9.63
2023-03-20T00:27:27.160Z,9.59
2023-03-20T00:28:27.099Z,9.60
2023-03-20T00:29:27.132Z,9.60
2023-03-20T00:30:27.089Z,9.62
2023-03-20T00:31:27.867Z,9.59
2023-03-20T00:32:27.078Z,9.58
2023-03-20T00:33:27.149Z,9.59
2023-03-20T00:34:27.191Z,9.56
2023-03-20T00:35:27.089Z,9.56
2023-03-20T00:36:27.027Z,9.59
2023-03-20T00:37:26.998Z,9.62
2023-03-20T00:38:27.001Z,9.63
2023-03-20T00:40:15.449Z,9.70
2023-03-20T00:41:15.453Z,9.67
2023-03-20T00:42:15.420Z,9.63
2023-03-20T00:43:18.080Z,9.65
2023-03-20T00:44:15.376Z,9.65
2023-03-20T00:45:15.345Z,9.60
2023-03-20T00:46:15.423Z,9.63
2023-03-20T00:47:15.342Z,9.63
2023-03-20T00:48:15.329Z,9.63
2023-03-20T00:49:15.317Z,9.65
2023-03-20T00:50:15.326Z,9.63
2023-03-20T00:51:15.261Z,9.65
2023-03-20T00:52:15.422Z,9.65
2023-03-20T00:53:15.266Z,9.65
2023-03-20T00:54:15.245Z,9.63
2023-03-20T00:55:15.251Z,9.62
2023-03-20T00:56:17.791Z,9.58
2023-03-20T00:57:15.211Z,9.58
2023-03-20T00:58:15.198Z,9.56
2023-03-20T00:59:15.189Z,9.56
2023-03-20T01:00:15.179Z,9.55
2023-03-20T01:01:15.185Z,9.58
2023-03-20T01:02:15.200Z,9.58
2023-03-20T01:03:15.138Z,9.55
2023-03-20T01:04:15.146Z,9.55
2023-03-20T01:05:15.140Z,9.55
2023-03-20T01:06:15.106Z,9.55
2023-03-20T01:07:15.086Z,9.55
2023-03-20T01:08:15.096Z,9.55
2023-03-20T01:09:15.037Z,9.56
2023-03-20T01:10:15.066Z,9.55
2023-03-20T01:11:15.015Z,9.53
2023-03-20T01:12:15.026Z,9.52
2023-03-20T01:13:15.013Z,9.55
2023-03-20T01:14:14.999Z,9.55
2023-03-20T01:15:14.952Z,9.52
2023-03-20T01:16:15.015Z,9.55
2023-03-20T01:17:14.936Z,9.55
2023-03-20T01:18:14.943Z,9.56
2023-03-20T01:19:14.930Z,9.53
2023-03-20T01:20:14.921Z,9.53
2023-03-20T01:21:14.872Z,9.50
2023-03-20T01:22:14.876Z,9.50
2023-03-20T01:23:14.888Z,9.52
2023-03-20T01:24:14.852Z,9.50
2023-03-20T01:25:14.871Z,9.52
2023-03-20T01:26:14.834Z,9.52
2023-03-20T01:27:14.814Z,9.52
2023-03-20T01:28:14.813Z,9.53
2023-03-20T01:29:14.762Z,9.58
2023-03-20T01:30:14.798Z,9.59
2023-03-20T01:31:14.779Z,9.59
2023-03-20T01:32:14.762Z,9.59
2023-03-20T01:33:14.820Z,9.59
2023-03-20T01:34:14.750Z,9.56
2023-03-20T01:35:14.707Z,9.58
2023-03-20T01:36:14.748Z,9.56
2023-03-20T01:37:14.725Z,9.58
2023-03-20T01:38:14.721Z,9.56
2023-03-20T01:39:14.673Z,9.56
2023-03-20T01:40:14.638Z,9.55
2023-03-20T01:41:14.644Z,9.55
2023-03-20T01:42:14.609Z,9.55
2023-03-20T01:43:14.676Z,9.55
2023-03-20T01:44:14.578Z,9.52
2023-03-20T01:45:14.587Z,9.49
2023-03-20T01:46:14.615Z,9.48
2023-03-20T01:47:14.597Z,9.44
2023-03-20T01:48:14.576Z,9.42
2023-03-20T01:49:14.492Z,9.42
2023-03-20T01:50:14.500Z,9.41
2023-03-20T01:51:14.496Z,9.41
2023-03-20T01:52:14.480Z,9.38
2023-03-20T01:53:14.465Z,9.40
2023-03-20T01:54:14.536Z,9.41
2023-03-20T01:55:14.440Z,9.38
2023-03-20T01:56:14.440Z,9.37
2023-03-20T01:57:14.396Z,9.34
2023-03-20T01:58:14.445Z,9.32
2023-03-20T01:59:14.405Z,9.32
2023-03-20T02:00:14.400Z,9.30
2023-03-20T02:01:14.437Z,9.30
2023-03-20T02:02:14.385Z,9.31
2023-03-20T02:03:14.404Z,9.32
2023-03-20T02:04:14.354Z,9.34
2023-03-20T02:05:14.301Z,9.32
2023-03-20T02:06:14.288Z,9.34
2023-03-20T02:07:14.272Z,9.32
2023-03-20T02:08:14.315Z,9.32
2023-03-20T02:09:14.259Z,9.32
2023-03-20T02:10:14.268Z,9.32
2023-03-20T02:11:14.233Z,9.31
2023-03-20T02:12:14.250Z,9.30
2023-03-20T02:13:14.248Z,9.30
2023-03-20T02:14:14.227Z,9.27
2023-03-20T02:15:14.173Z,9.27
2023-03-20T02:16:14.181Z,9.30
2023-03-20T02:17:14.149Z,9.27
2023-03-20T02:18:14.195Z,9.24
2023-03-20T02:19:14.120Z,9.23
2023-03-20T02:20:14.106Z,9.23
2023-03-20T02:21:14.085Z,9.20
2023-03-20T02:22:14.085Z,9.19
2023-03-20T02:23:14.112Z,9.17
2023-03-20T02:24:14.073Z,9.16
2023-03-20T02:25:14.033Z,9.15
2023-03-20T02:26:14.028Z,9.13
2023-03-20T02:27:14.006Z,9.12
2023-03-20T02:28:14.046Z,9.10
2023-03-20T02:29:13.981Z,9.10
2023-03-20T02:30:13.974Z,9.13
2023-03-20T02:31:14.036Z,9.13
2023-03-20T02:32:13.949Z,9.16
2023-03-20T02:33:14.038Z,9.16
2023-03-20T02:34:13.922Z,9.17
2023-03-20T02:35:13.911Z,9.16
2023-03-20T02:36:13.924Z,9.17
2023-03-20T02:37:13.880Z,9.16
2023-03-20T02:38:13.889Z,9.17
2023-03-20T02:39:13.865Z,9.17
2023-03-20T02:40:13.846Z,9.19
2023-03-20T02:41:13.869Z,9.17
2023-03-20T02:42:13.839Z,9.19
2023-03-20T02:43:13.800Z,9.17
2023-03-20T02:44:13.820Z,9.17
2023-03-20T02:45:13.798Z,9.19
2023-03-20T02:46:13.862Z,9.17
2023-03-20T02:47:13.784Z,9.20
2023-03-20T02:48:13.745Z,9.22
2023-03-20T02:49:13.765Z,9.22
2023-03-20T02:50:13.746Z,9.20
2023-03-20T02:51:13.727Z,9.22
2023-03-20T02:52:13.716Z,9.22
2023-03-20T02:53:13.686Z,9.22
2023-03-20T02:54:13.704Z,9.23
2023-03-20T02:55:13.634Z,9.23
2023-03-20T02:56:13.661Z,9.24
2023-03-20T02:57:13.609Z,9.23
2023-03-20T02:58:13.679Z,9.19
2023-03-20T02:59:13.590Z,9.19
2023-03-20T03:00:13.636Z,9.19
2023-03-20T03:01:13.596Z,9.17
2023-03-20T03:02:13.618Z,9.17
2023-03-20T03:03:13.529Z,9.17
2023-03-20T03:04:13.565Z,9.19
2023-03-20T03:05:13.526Z,9.16
2023-03-20T03:06:13.543Z,9.16
2023-03-20T03:07:13.506Z,9.19
2023-03-20T03:08:13.513Z,9.20
2023-03-20T03:09:15.235Z,9.19
2023-03-20T03:10:13.541Z,9.22
2023-03-20T03:11:13.461Z,9.20
2023-03-20T03:12:13.439Z,9.23
2023-03-20T03:13:13.439Z,9.23
2023-03-20T03:14:13.424Z,9.22
2023-03-20T03:15:13.377Z,9.22
2023-03-20T03:16:13.382Z,9.22
2023-03-20T03:17:13.367Z,9.22
2023-03-20T03:18:13.346Z,9.23
2023-03-20T03:19:13.353Z,9.24
2023-03-20T03:20:13.363Z,9.24
2023-03-20T03:21:13.324Z,9.24
2023-03-20T03:22:13.333Z,9.24
2023-03-20T03:23:13.275Z,9.26
2023-03-20T03:24:13.304Z,9.24
2023-03-20T03:25:13.235Z,9.24
2023-03-20T03:26:13.256Z,9.26
2023-03-20T03:27:13.287Z,9.24
2023-03-20T03:28:13.244Z,9.24
2023-03-20T03:29:13.194Z,9.23
2023-03-20T03:30:13.243Z,9.22
2023-03-20T03:31:13.229Z,9.22
2023-03-20T03:32:13.192Z,9.17
2023-03-20T03:33:13.320Z,9.17
2023-03-20T03:34:13.146Z,9.16
2023-03-20T03:35:13.133Z,9.15
2023-03-20T03:36:13.171Z,9.15
2023-03-20T03:37:13.112Z,9.15
2023-03-20T03:38:13.091Z,9.17
2023-03-20T03:39:13.079Z,9.19
2023-03-20T03:40:13.074Z,9.17
2023-03-20T03:41:13.061Z,9.19
2023-03-20T03:42:13.063Z,9.19
2023-03-20T03:43:13.032Z,9.19
2023-03-20T03:44:13.044Z,9.17
2023-03-20T03:45:13.027Z,9.16
2023-03-20T03:46:12.997Z,9.13
2023-03-20T03:47:13.040Z,9.15
2023-03-20T03:48:12.969Z,9.12
2023-03-20T03:49:12.977Z,9.08
2023-03-20T03:50:12.909Z,9.10
2023-03-20T03:51:12.952Z,9.12
2023-03-20T03:52:12.903Z,9.10
2023-03-20T03:53:12.891Z,9.08
2023-03-20T03:54:12.863Z,9.08
2023-03-20T03:55:12.895Z,9.08
2023-03-20T03:56:12.910Z,9.01
2023-03-20T03:57:12.861Z,9.03
2023-03-20T03:58:12.888Z,9.00
2023-03-20T03:59:12.847Z,9.00
2023-03-20T04:00:12.789Z,9.00
2023-03-20T04:01:12.792Z,8.97
2023-03-20T04:02:12.895Z,8.96
2023-03-20T04:03:12.770Z,8.97
2023-03-20T04:04:12.844Z,8.98
2023-03-20T04:05:12.750Z,8.97
2023-03-20T04:06:12.701Z,8.98
2023-03-20T04:07:12.739Z,9.00
2023-03-20T04:08:12.704Z,9.03
2023-03-20T04:09:12.683Z,9.03
2023-03-20T04:10:12.692Z,9.03
2023-03-20T04:11:12.695Z,9.03
2023-03-20T04:12:12.631Z,9.01
2023-03-20T04:13:12.663Z,8.98
2023-03-20T04:14:12.642Z,8.97
2023-03-20T04:15:12.642Z,8.96
2023-03-20T04:16:12.706Z,8.98
2023-03-20T04:17:12.582Z,8.98
2023-03-20T04:18:12.621Z,9.00
2023-03-20T04:19:12.554Z,8.98
2023-03-20T04:20:12.592Z,8.94
2023-03-20T04:21:12.510Z,8.94
2023-03-20T04:22:12.499Z,8.91
2023-03-20T04:23:12.568Z,8.93
2023-03-20T04:24:12.463Z,8.89
2023-03-20T04:25:12.472Z,8.88
2023-03-20T04:26:12.491Z,8.88
2023-03-20T04:27:12.448Z,8.83
2023-03-20T04:28:12.469Z,8.80
2023-03-20T04:29:12.431Z,8.79
2023-03-20T04:30:12.416Z,8.80
2023-03-20T04:31:12.433Z,8.80
2023-03-20T04:32:12.361Z,8.80
2023-03-20T04:33:12.404Z,8.78
2023-03-20T04:34:12.437Z,8.78
2023-03-20T04:35:12.354Z,8.78
2023-03-20T04:36:12.368Z,8.80
2023-03-20T04:37:12.364Z,8.83
2023-03-20T04:38:12.321Z,8.83
2023-03-20T04:39:12.322Z,8.83
2023-03-20T04:40:12.260Z,8.86
2023-03-20T04:41:12.271Z,8.86
2023-03-20T04:42:12.267Z,8.85
2023-03-20T04:43:12.247Z,8.83
2023-03-20T04:44:12.266Z,8.83
2023-03-20T04:45:12.235Z,8.82
2023-03-20T04:46:12.327Z,8.79
2023-03-20T04:47:12.213Z,8.79
2023-03-20T04:48:12.192Z,8.78
2023-03-20T04:49:12.202Z,8.79
2023-03-20T04:50:12.154Z,8.80
2023-03-20T04:51:12.174Z,8.78
2023-03-20T04:52:12.103Z,8.76
2023-03-20T04:53:12.108Z,8.75
2023-03-20T04:54:12.190Z,8.73
2023-03-20T04:55:12.116Z,8.71
2023-03-20T04:56:12.064Z,8.71
2023-03-20T04:57:12.083Z,8.71
2023-03-20T04:58:12.028Z,8.70
2023-03-20T04:59:12.072Z,8.67
2023-03-20T05:00:12.024Z,8.65
2023-03-20T05:01:12.073Z,8.63
2023-03-20T05:02:11.973Z,8.61
2023-03-20T05:03:12.004Z,8.64
2023-03-20T05:04:12.016Z,8.63
2023-03-20T05:05:11.943Z,8.63
2023-03-20T05:06:11.945Z,8.63
2023-03-20T05:07:11.924Z,8.60
2023-03-20T05:08:11.914Z,8.61
2023-03-20T05:09:11.919Z,8.61
2023-03-20T05:10:11.903Z,8.61
2023-03-20T05:11:11.903Z,8.57
2023-03-20T05:12:11.855Z,8.57
2023-03-20T05:13:11.866Z,8.55
2023-03-20T05:14:11.861Z,8.54
2023-03-20T05:15:11.833Z,8.54
2023-03-20T05:16:11.827Z,8.54
2023-03-20T05:17:11.826Z,8.54
2023-03-20T05:18:11.784Z,8.55
2023-03-20T05:19:11.759Z,8.52
2023-03-20T05:20:11.734Z,8.52
2023-03-20T05:21:11.748Z,8.49
2023-03-20T05:22:11.709Z,8.49
2023-03-20T05:23:11.731Z,8.47
2023-03-20T05:24:11.704Z,8.47
2023-03-20T05:25:11.727Z,8.46
2023-03-20T05:26:11.674Z,8.46
2023-03-20T05:27:11.699Z,8.45
2023-03-20T05:28:11.679Z,8.45
2023-03-20T05:29:11.657Z,8.46
2023-03-20T05:30:11.624Z,8.43
2023-03-20T05:31:11.697Z,8.42
2023-03-20T05:32:11.575Z,8.40
2023-03-20T05:33:11.820Z,8.39
2023-03-20T05:34:11.557Z,8.34
2023-03-20T05:35:11.585Z,8.34
2023-03-20T05:36:11.575Z,8.34
2023-03-20T05:37:11.560Z,8.34
2023-03-20T05:38:11.562Z,8.32
2023-03-20T05:39:11.605Z,8.31
2023-03-20T05:40:11.476Z,8.29
2023-03-20T05:41:11.550Z,8.31
2023-03-20T05:42:11.488Z,8.32
2023-03-20T05:43:11.433Z,8.32
2023-03-20T05:44:11.433Z,8.34
2023-03-20T05:45:11.408Z,8.34
2023-03-20T05:46:11.515Z,8.36
2023-03-20T05:47:18.565Z,8.34
2023-03-20T05:48:11.415Z,8.36
2023-03-20T05:49:11.408Z,8.36
2023-03-20T05:50:14.157Z,8.36
2023-03-20T05:51:11.328Z,8.36
2023-03-20T05:52:11.328Z,8.37
2023-03-20T05:53:11.345Z,8.34
2023-03-20T05:54:11.286Z,8.34
2023-03-20T05:55:11.290Z,8.34
2023-03-20T05:56:11.287Z,8.34
2023-03-20T05:57:11.257Z,8.36
2023-03-20T05:58:11.335Z,8.39
2023-03-20T05:59:11.256Z,8.39
2023-03-20T06:00:11.247Z,8.39
2023-03-20T06:01:11.238Z,8.39
2023-03-20T06:02:11.231Z,8.39
2023-03-20T06:03:11.283Z,8.36
2023-03-20T06:04:11.181Z,8.36
2023-03-20T06:05:11.154Z,8.37
2023-03-20T06:06:11.154Z,8.32
2023-03-20T06:07:11.136Z,8.32
2023-03-20T06:08:11.136Z,8.31
2023-03-20T06:09:11.163Z,8.29
2023-03-20T06:10:11.115Z,8.29
2023-03-20T06:11:11.126Z,8.29
2023-03-20T06:12:11.049Z,8.29
2023-03-20T06:13:11.080Z,8.29
2023-03-20T06:14:11.064Z,8.28
2023-03-20T06:15:11.050Z,8.28
2023-03-20T06:16:11.061Z,8.28
2023-03-20T06:17:11.027Z,8.27
2023-03-20T06:18:11.015Z,8.25
2023-03-20T06:19:11.004Z,8.27
2023-03-20T06:20:10.981Z,8.28
2023-03-20T06:21:10.989Z,8.29
2023-03-20T06:22:10.952Z,8.29
2023-03-20T06:23:10.952Z,8.32
2023-03-20T06:24:10.901Z,8.34
2023-03-20T06:25:10.942Z,8.37
2023-03-20T06:26:10.868Z,8.37
2023-03-20T06:27:10.870Z,8.39
2023-03-20T06:28:10.877Z,8.36
2023-03-20T06:29:10.861Z,8.36
2023-03-20T06:30:10.819Z,8.36
2023-03-20T06:31:10.840Z,8.36
2023-03-20T06:32:10.789Z,8.36
2023-03-20T06:33:10.939Z,8.39
2023-03-20T06:34:10.766Z,8.39
2023-03-20T06:35:10.826Z,8.40
2023-03-20T06:36:10.773Z,8.40
2023-03-20T06:37:10.814Z,8.42
2023-03-20T06:38:10.749Z,8.45
2023-03-20T06:39:10.783Z,8.43
2023-03-20T06:40:10.710Z,8.40
2023-03-20T06:41:10.701Z,8.39
2023-03-20T06:42:10.650Z,8.36
2023-03-20T06:43:17.785Z,8.39
2023-03-20T06:44:10.631Z,8.42
2023-03-20T06:45:10.672Z,8.42
2023-03-20T06:46:10.670Z,8.42
2023-03-20T06:47:10.633Z,8.45
2023-03-20T06:48:10.592Z,8.43
2023-03-20T06:49:10.578Z,8.46
2023-03-20T06:50:10.616Z,8.42
2023-03-20T06:51:10.576Z,8.42
2023-03-20T06:52:10.564Z,8.43
2023-03-20T06:53:10.526Z,8.45
2023-03-20T06:54:10.524Z,8.46
2023-03-20T06:55:10.528Z,8.47
2023-03-20T06:56:10.511Z,8.46
2023-03-20T06:57:10.480Z,8.49
2023-03-20T06:58:10.452Z,8.52
2023-03-20T06:59:10.496Z,8.55
2023-03-20T07:00:10.451Z,8.58
2023-03-20T07:01:10.425Z,8.60
2023-03-20T07:02:10.482Z,8.61
2023-03-20T07:03:10.454Z,8.63
2023-03-20T07:04:10.371Z,8.63
2023-03-20T07:05:10.512Z,8.60
2023-03-20T07:06:10.396Z,8.60
2023-03-20T07:07:10.354Z,8.58
2023-03-20T07:08:10.345Z,8.60
2023-03-20T07:09:10.355Z,8.61
2023-03-20T07:10:10.300Z,8.63
2023-03-20T07:11:10.336Z,8.65
2023-03-20T07:12:10.304Z,8.67
2023-03-20T07:13:10.297Z,8.73
2023-03-20T07:14:10.249Z,8.76
2023-03-20T07:15:10.278Z,8.79
2023-03-20T07:16:10.314Z,8.80
2023-03-20T07:17:10.247Z,8.85
2023-03-20T07:18:10.211Z,8.86
2023-03-20T07:19:10.191Z,8.85
2023-03-20T07:20:10.208Z,8.83
2023-03-20T07:21:10.171Z,8.86
2023-03-20T07:22:10.185Z,8.89
2023-03-20T07:23:10.155Z,8.91
2023-03-20T07:24:10.147Z,8.96
2023-03-20T07:25:10.114Z,8.97
2023-03-20T07:26:10.092Z,8.98
2023-03-20T07:27:10.162Z,8.93
2023-03-20T07:28:10.066Z,8.96
2023-03-20T07:29:10.103Z,8.97
2023-03-20T07:30:10.028Z,9.01
2023-03-20T07:31:10.133Z,9.00
2023-03-20T07:32:10.062Z,8.98
2023-03-20T07:33:10.175Z,8.96
2023-03-20T07:34:10.015Z,8.97
2023-03-20T07:35:10.019Z,8.97
2023-03-20T07:36:09.967Z,8.93
2023-03-20T07:37:09.961Z,8.93
2023-03-20T07:38:10.073Z,8.89
2023-03-20T07:39:09.938Z,8.88
2023-03-20T07:40:09.937Z,8.89
2023-03-20T07:41:09.961Z,8.80
2023-03-20T07:42:09.887Z,8.79
2023-03-20T07:43:09.882Z,8.78
2023-03-20T07:44:09.852Z,8.80
2023-03-20T07:45:09.900Z,8.80
2023-03-20T07:46:09.961Z,8.82
2023-03-20T07:47:09.822Z,8.86
2023-03-20T07:48:09.888Z,8.91
2023-03-20T07:49:09.839Z,8.96
2023-03-20T07:50:09.879Z,8.97
2023-03-20T07:51:09.757Z,8.97
2023-03-20T07:52:09.796Z,8.96
2023-03-20T07:53:09.757Z,8.97
2023-03-20T07:54:09.728Z,9.00
2023-03-20T07:55:09.728Z,9.01
2023-03-20T07:56:09.756Z,9.04
2023-03-20T07:57:09.702Z,9.08
2023-03-20T07:58:09.713Z,9.03
2023-03-20T07:59:09.673Z,9.06
2023-03-20T08:00:09.683Z,9.06
2023-03-20T08:01:09.657Z,9.12
2023-03-20T08:02:09.636Z,9.10
2023-03-20T08:03:09.741Z,9.06
2023-03-20T08:04:09.681Z,9.00
2023-03-20T08:05:09.908Z,9.00
2023-03-20T08:06:09.596Z,8.98
2023-03-20T08:07:09.565Z,8.97
2023-03-20T08:08:09.560Z,9.01
2023-03-20T08:09:09.551Z,9.03
2023-03-20T08:10:09.530Z,9.04
2023-03-20T08:11:09.506Z,9.01
2023-03-20T08:12:09.518Z,9.01
2023-03-20T08:13:09.474Z,9.01
2023-03-20T08:14:09.487Z,9.03
2023-03-20T08:15:09.437Z,9.01
2023-03-20T08:16:09.523Z,9.03
2023-03-20T08:17:14.973Z,9.08
2023-03-20T08:18:10.474Z,9.16
2023-03-20T08:19:09.426Z,9.17
2023-03-20T08:20:09.399Z,9.20
2023-03-20T08:21:09.379Z,9.23
2023-03-20T08:22:09.360Z,9.30
2023-03-20T08:23:09.392Z,9.34
2023-03-20T08:24:09.386Z,9.38
2023-03-20T08:25:09.326Z,9.40
2023-03-20T08:26:09.373Z,9.42
2023-03-20T08:27:09.334Z,9.44
2023-03-20T08:28:09.323Z,9.45
2023-03-20T08:29:09.312Z,9.48
2023-03-20T08:30:09.304Z,9.52
2023-03-20T08:31:09.270Z,9.53
2023-03-20T08:32:09.241Z,9.56
2023-03-20T08:33:09.264Z,9.58
2023-03-20T08:34:09.244Z,9.58
2023-03-20T08:35:16.359Z,9.58
2023-03-20T08:36:10.266Z,9.58
2023-03-20T08:37:09.160Z,9.55
2023-03-20T08:38:09.173Z,9.53
2023-03-20T08:39:09.153Z,9.52
2023-03-20T08:40:09.166Z,9.52
2023-03-20T08:41:09.128Z,9.56
2023-03-20T08:42:09.122Z,9.56
2023-03-20T08:43:09.304Z,9.59
2023-03-20T08:44:09.129Z,9.59
2023-03-20T08:45:09.081Z,9.63
2023-03-20T08:46:09.161Z,9.68
2023-03-20T08:47:09.060Z,9.67
2023-03-20T08:48:09.034Z,9.67
2023-03-20T08:49:09.028Z,9.67
2023-03-20T08:50:09.002Z,9.68
2023-03-20T08:51:09.026Z,9.70
2023-03-20T08:52:08.998Z,9.68
2023-03-20T08:53:09.018Z,9.70
2023-03-20T08:54:08.967Z,9.70
2023-03-20T08:55:08.931Z,9.73
2023-03-20T08:56:08.954Z,9.73
2023-03-20T08:57:08.937Z,9.77
2023-03-20T08:58:08.892Z,9.77
2023-03-20T08:59:08.902Z,9.78
2023-03-20T09:00:08.915Z,9.77
2023-03-20T09:01:08.982Z,9.70
2023-03-20T09:02:09.199Z,9.65
2023-03-20T09:03:08.961Z,9.67
2023-03-20T09:04:08.924Z,9.68
2023-03-20T09:05:08.812Z,9.67
2023-03-20T09:06:08.835Z,9.68
2023-03-20T09:07:08.818Z,9.71
2023-03-20T09:08:08.838Z,9.75
2023-03-20T09:09:08.871Z,9.78
2023-03-20T09:10:08.781Z,9.75
2023-03-20T09:11:08.743Z,9.78
2023-03-20T09:12:09.715Z,9.80
2023-03-20T09:13:25.640Z,9.81
2023-03-20T09:14:09.743Z,9.80
2023-03-20T09:15:08.697Z,9.78
2023-03-20T09:16:08.747Z,9.83
2023-03-20T09:17:08.664Z,9.85
2023-03-20T09:18:08.702Z,9.88
2023-03-20T09:19:08.644Z,9.91
2023-03-20T09:20:08.650Z,9.88
2023-03-20T09:21:08.633Z,9.86
2023-03-20T09:22:08.603Z,9.91
2023-03-20T09:23:08.565Z,9.93
2023-03-20T09:24:08.588Z,9.95
2023-03-20T09:25:08.745Z,9.86
2023-03-20T09:26:08.552Z,9.86
2023-03-20T09:27:08.590Z,9.83
2023-03-20T09:28:08.503Z,9.83
2023-03-20T09:29:08.508Z,9.83
2023-03-20T09:30:08.482Z,9.88
2023-03-20T09:31:08.587Z,9.89
2023-03-20T09:32:08.447Z,9.92
2023-03-20T09:33:08.493Z,9.96
2023-03-20T09:34:08.748Z,9.99
2023-03-20T09:35:08.434Z,9.93
2023-03-20T09:36:08.467Z,9.92
2023-03-20T09:37:08.437Z,9.91
2023-03-20T09:38:08.392Z,9.91
2023-03-20T09:39:08.364Z,9.89
2023-03-20T09:40:08.373Z,9.89
2023-03-20T09:41:08.351Z,9.83
2023-03-20T09:42:08.344Z,9.80
2023-03-20T09:43:08.332Z,9.78
2023-03-20T09:44:08.335Z,9.78
2023-03-20T09:45:08.311Z,9.78
2023-03-20T09:46:08.366Z,9.78
2023-03-20T09:47:19.332Z,9.77
2023-03-20T09:48:09.302Z,9.77
2023-03-20T09:49:08.222Z,9.78
2023-03-20T09:50:08.251Z,9.77
2023-03-20T09:51:08.229Z,9.78
2023-03-20T09:52:08.182Z,9.77
2023-03-20T09:53:08.195Z,9.80
2023-03-20T09:54:08.171Z,9.80
2023-03-20T09:55:08.288Z,9.73
2023-03-20T09:56:08.230Z,9.74
2023-03-20T09:57:08.128Z,9.73
2023-03-20T09:58:08.111Z,9.74
2023-03-20T09:59:08.102Z,9.78
2023-03-20T10:00:08.108Z,9.83
2023-03-20T10:01:08.110Z,9.86
2023-03-20T10:02:08.070Z,9.91
2023-03-20T10:03:08.065Z,9.92
2023-03-20T10:04:08.093Z,9.96
2023-03-20T10:05:08.026Z,10.02
2023-03-20T10:06:08.081Z,10.06
2023-03-20T10:07:08.028Z,10.09
2023-03-20T10:08:08.043Z,10.16
2023-03-20T10:09:08.022Z,10.14
2023-03-20T10:10:07.947Z,10.14
2023-03-20T10:11:07.965Z,10.17
2023-03-20T10:12:07.921Z,10.18
2023-03-20T10:13:07.900Z,10.20
2023-03-20T10:14:07.925Z,10.11
2023-03-20T10:15:07.899Z,10.04
2023-03-20T10:16:07.921Z,10.06
2023-03-20T10:17:07.874Z,10.07
2023-03-20T10:18:07.851Z,10.10
2023-03-20T10:19:07.846Z,10.14
2023-03-20T10:20:07.852Z,10.20
2023-03-20T10:21:07.846Z,10.17
2023-03-20T10:22:07.801Z,10.16
2023-03-20T10:23:07.820Z,10.14
2023-03-20T10:24:07.797Z,10.09
2023-03-20T10:25:07.745Z,10.07
2023-03-20T10:26:07.746Z,10.07
2023-03-20T10:27:07.738Z,10.02
2023-03-20T10:28:07.740Z,10.02
2023-03-20T10:29:07.726Z,10.07
2023-03-20T10:30:07.697Z,10.06
2023-03-20T10:31:07.699Z,10.09
2023-03-20T10:32:07.693Z,10.13
2023-03-20T10:33:07.814Z,10.16
2023-03-20T10:34:07.656Z,10.18
2023-03-20T10:35:07.632Z,10.20
2023-03-20T10:36:07.636Z,10.25
2023-03-20T10:37:07.600Z,10.25
2023-03-20T10:38:07.595Z,10.25
2023-03-20T10:39:07.557Z,10.25
2023-03-20T10:40:07.544Z,10.22
2023-03-20T10:41:07.523Z,10.14
2023-03-20T10:42:07.550Z,10.13
2023-03-20T10:43:07.562Z,10.14
2023-03-20T10:44:07.938Z,10.16
2023-03-20T10:45:07.470Z,10.16
2023-03-20T10:46:07.484Z,10.14
2023-03-20T10:47:07.521Z,10.16
2023-03-20T10:48:07.466Z,10.16
2023-03-20T10:49:07.450Z,10.17
2023-03-20T10:50:07.441Z,10.24
2023-03-20T10:51:07.419Z,10.29
2023-03-20T10:52:07.454Z,10.29
2023-03-20T10:53:07.386Z,10.26
2023-03-20T10:54:07.362Z,10.28
2023-03-20T10:55:07.386Z,10.28
2023-03-20T10:56:07.365Z,10.29
2023-03-20T10:57:07.391Z,10.31
2023-03-20T10:58:07.334Z,10.38
2023-03-20T10:59:07.376Z,10.39
2023-03-20T11:00:07.316Z,10.36
2023-03-20T11:01:07.314Z,10.34
2023-03-20T11:02:07.308Z,10.26
2023-03-20T11:03:07.278Z,10.20
2023-03-20T11:04:07.349Z,10.24
2023-03-20T11:05:07.248Z,10.25
2023-03-20T11:06:10.169Z,10.26
2023-03-20T11:07:07.223Z,10.29
2023-03-20T11:08:07.194Z,10.34
2023-03-20T11:09:07.214Z,10.36
2023-03-20T11:10:07.204Z,10.38
2023-03-20T11:11:07.152Z,10.32
2023-03-20T11:12:07.161Z,10.35
2023-03-20T11:13:07.125Z,10.29
2023-03-20T11:14:07.153Z,10.22
2023-03-20T11:15:07.125Z,10.17
2023-03-20T11:16:07.163Z,10.18
2023-03-20T11:17:07.122Z,10.18
2023-03-20T11:18:07.083Z,10.17
2023-03-20T11:19:07.239Z,10.11
2023-03-20T11:20:07.058Z,10.13
2023-03-20T11:21:07.040Z,10.14
2023-03-20T11:22:07.015Z,10.13
2023-03-20T11:23:07.006Z,10.13
2023-03-20T11:24:07.008Z,10.14
2023-03-20T11:25:06.987Z,10.13
2023-03-20T11:26:06.976Z,10.09
2023-03-20T11:27:08.171Z,10.04
2023-03-20T11:28:06.989Z,10.06
2023-03-20T11:29:06.968Z,10.07
2023-03-20T11:30:06.906Z,10.09
2023-03-20T11:31:06.983Z,10.10
2023-03-20T11:32:07.022Z,10.07
2023-03-20T11:33:06.969Z,10.06
2023-03-20T11:34:06.900Z,10.04
2023-03-20T11:35:06.868Z,10.02
2023-03-20T11:36:06.883Z,10.02
2023-03-20T11:37:10.599Z,10.01
2023-03-20T11:38:06.793Z,9.96
2023-03-20T11:39:06.770Z,9.92
2023-03-20T11:40:06.788Z,9.93
2023-03-20T11:41:06.765Z,9.89
2023-03-20T11:42:06.734Z,9.91
2023-03-20T11:43:06.717Z,9.93
2023-03-20T11:44:06.729Z,9.92
2023-03-20T11:45:06.753Z,9.95
2023-03-20T11:46:06.780Z,9.86
2023-03-20T11:47:06.672Z,9.78
2023-03-20T11:48:06.683Z,9.77
2023-03-20T11:49:06.685Z,9.80
2023-03-20T11:50:06.672Z,9.83
2023-03-20T11:51:06.638Z,9.74
2023-03-20T11:52:06.606Z,9.73
2023-03-20T11:53:06.593Z,9.71
2023-03-20T11:54:06.614Z,9.73
2023-03-20T11:55:06.610Z,9.70
2023-03-20T11:56:06.580Z,9.60
2023-03-20T11:57:06.578Z,9.59
2023-03-20T11:58:06.553Z,9.62
2023-03-20T11:59:06.500Z,9.65
2023-03-20T12:00:06.553Z,9.68
2023-03-20T12:01:06.474Z,9.68
2023-03-20T12:02:06.546Z,9.71
2023-03-20T12:03:06.555Z,9.75
2023-03-20T12:04:06.525Z,9.81
2023-03-20T12:05:06.484Z,9.88
2023-03-20T12:06:06.461Z,9.91
2023-03-20T12:07:06.434Z,9.95
2023-03-20T12:08:06.411Z,10.01
2023-03-20T12:09:06.383Z,10.02
2023-03-20T12:10:06.418Z,10.04
2023-03-20T12:11:06.402Z,10.04
2023-03-20T12:12:06.369Z,10.07
2023-03-20T12:13:06.344Z,10.10
2023-03-20T12:14:06.310Z,10.13
2023-03-20T12:15:06.321Z,10.14
2023-03-20T12:16:06.387Z,10.10
2023-03-20T12:17:06.284Z,10.10
2023-03-20T12:18:06.293Z,10.02
2023-03-20T12:19:06.283Z,9.98
2023-03-20T12:20:06.249Z,9.95
2023-03-20T12:21:06.314Z,9.95
2023-03-20T12:22:06.228Z,9.95
2023-03-20T12:23:06.204Z,9.96
2023-03-20T12:24:06.180Z,9.86
2023-03-20T12:25:06.172Z,9.81
2023-03-20T12:26:06.207Z,9.78
2023-03-20T12:27:06.156Z,9.83
2023-03-20T12:28:06.167Z,9.89
2023-03-20T12:29:06.147Z,9.92
2023-03-20T12:30:06.094Z,9.93
2023-03-20T12:31:06.444Z,9.93
2023-03-20T12:32:06.096Z,9.96
2023-03-20T12:33:06.203Z,9.96
2023-03-20T12:34:06.042Z,9.85
2023-03-20T12:35:06.066Z,9.75
2023-03-20T12:36:06.088Z,9.68
2023-03-20T12:37:06.081Z,9.65
2023-03-20T12:38:06.017Z,9.59
2023-03-20T12:39:05.990Z,9.55
2023-03-20T12:40:06.009Z,9.55
2023-03-20T12:41:05.990Z,9.49
2023-03-20T12:42:05.960Z,9.53
2023-03-20T12:43:05.990Z,9.59
2023-03-20T12:44:05.913Z,9.63
2023-03-20T12:45:05.982Z,9.73
2023-03-20T12:46:05.954Z,9.67
2023-03-20T12:47:05.952Z,9.65
2023-03-20T12:48:05.884Z,9.67
2023-03-20T12:49:05.887Z,9.67
2023-03-20T12:50:05.865Z,9.73
2023-03-20T12:51:05.887Z,9.77
2023-03-20T12:52:05.821Z,9.83
2023-03-20T12:53:05.839Z,9.85
2023-03-20T12:54:05.816Z,9.89
2023-03-20T12:55:05.806Z,9.88
2023-03-20T12:56:05.797Z,9.89
2023-03-20T12:57:05.767Z,9.83
2023-03-20T12:58:05.749Z,9.86
2023-03-20T12:59:05.797Z,9.91
2023-03-20T13:00:05.717Z,9.92
2023-03-20T13:01:05.719Z,9.96
2023-03-20T13:02:05.759Z,9.98
2023-03-20T13:03:05.762Z,10.04
2023-03-20T13:04:05.684Z,10.11
2023-03-20T13:05:05.648Z,10.18
2023-03-20T13:06:05.657Z,10.22
2023-03-20T13:07:12.786Z,10.26
2023-03-20T13:08:07.499Z,10.26
2023-03-20T13:09:07.316Z,10.26
2023-03-20T13:10:05.581Z,10.29
2023-03-20T13:11:05.600Z,10.31
2023-03-20T13:12:05.592Z,10.29
2023-03-20T13:13:05.646Z,10.29
2023-03-20T13:14:05.557Z,10.32
2023-03-20T13:15:05.518Z,10.35